sensor_id;sensor_type;location;lat;lon;timestamp;P1;durP1;ratioP1;P2;durP2;ratioP2
5847;SDS011;8756;49.29324300;8.70599800;2023-04-25T00:01:23;11.77;;;5.27;;
5847;SDS011;8756;49.29324300;8.70599800;2023-04-25T00:03:48;13.07;;;4.53;;
5847;SDS011;8756;49.29324300;8.70599800;2023-04-25T00:06:15;11.37;;;5.07;;
5847;SDS011;8756;49.29324300;8.70599800;2023-04-25T00:08:40;11.47;;;4.30;;
5847;SDS011;8756;49.29324300;8.70599800;2023-04-25T00:11:06;11.50;;;4.50;;
5847;SDS011;8756;49.29324300;8.70599800;2023-04-25T00:13:32;11.90;;;4.90;;
5847;SDS011;8756;49.29324300;8.70599800;2023-04-25T00:15:58;10.77;;;4.80;;
5847;SDS011;8756;49.29324300;8.70599800;2023-04-25T00:18:25;11.70;;;4.43;;
5847;SDS011;8756;49.29324300;8.70599800;2023-04-25T00:20:53;11.87;;;4.50;;
5847;SDS011;8756;49.29324300;8.70599800;2023-04-25T00:23:20;10.50;;;4.30;;
5847;SDS011;8756;49.29324300;8.70599800;2023-04-25T00:25:47;11.00;;;4.23;;
5847;SDS011;8756;49.29324300;8.70599800;2023-04-25T00:28:14;11.47;;;4.93;;
5847;SDS011;8756;49.29324300;8.70599800;2023-04-25T00:30:40;10.70;;;4.50;;
5847;SDS011;8756;49.29324300;8.70599800;2023-04-25T00:33:07;10.40;;;4.70;;
5847;SDS011;8756;49.29324300;8.70599800;2023-04-25T00:35:33;12.20;;;4.20;;
5847;SDS011;8756;49.29324300;8.70599800;2023-04-25T00:38:00;11.33;;;4.97;;
5847;SDS011;8756;49.29324300;8.70599800;2023-04-25T00:40:26;11.33;;;4.13;;
5847;SDS011;8756;49.29324300;8.70599800;2023-04-25T00:42:52;11.03;;;5.07;;
5847;SDS011;8756;49.29324300;8.70599800;2023-04-25T00:45:18;11.10;;;4.03;;
5847;SDS011;8756;49.29324300;8.70599800;2023-04-25T00:47:44;10.47;;;4.40;;
5847;SDS011;8756;49.29324300;8.70599800;2023-04-25T00:50:11;11.47;;;5.00;;
5847;SDS011;8756;49.29324300;8.70599800;2023-04-25T00:52:37;12.40;;;5.03;;
5847;SDS011;8756;49.29324300;8.70599800;2023-04-25T00:55:06;12.33;;;5.10;;
5847;SDS011;8756;49.29324300;8.70599800;2023-04-25T00:57:33;12.00;;;5.20;;
5847;SDS011;8756;49.29324300;8.70599800;2023-04-25T00:59:59;11.93;;;4.90;;
5847;SDS011;8756;49.29324300;8.70599800;2023-04-25T01:02:25;11.07;;;5.10;;
5847;SDS011;8756;49.29324300;8.70599800;2023-04-25T01:04:52;11.80;;;5.37;;
5847;SDS011;8756;49.29324300;8.70599800;2023-04-25T01:07:17;11.97;;;5.00;;
5847;SDS011;8756;49.29324300;8.70599800;2023-04-25T01:09:43;11.80;;;5.30;;
5847;SDS011;8756;49.29324300;8.70599800;2023-04-25T01:12:11;10.80;;;4.33;;
5847;SDS011;8756;49.29324300;8.70599800;2023-04-25T01:14:38;11.07;;;4.13;;
5847;SDS011;8756;49.29324300;8.70599800;2023-04-25T01:17:03;12.33;;;5.07;;
5847;SDS011;8756;49.29324300;8.70599800;2023-04-25T01:19:30;11.30;;;4.60;;
5847;SDS011;8756;49.29324300;8.70599800;2023-04-25T01:21:56;12.00;;;5.57;;
5847;SDS011;8756;49.29324300;8.70599800;2023-04-25T01:24:21;11.73;;;4.80;;
5847;SDS011;8756;49.29324300;8.70599800;2023-04-25T01:26:47;12.37;;;5.00;;
5847;SDS011;8756;49.29324300;8.70599800;2023-04-25T01:29:18;10.13;;;4.13;;
5847;SDS011;8756;49.29324300;8.70599800;2023-04-25T01:31:45;11.50;;;4.70;;
5847;SDS011;8756;49.29324300;8.70599800;2023-04-25T01:34:14;11.50;;;4.60;;
5847;SDS011;8756;49.29324300;8.70599800;2023-04-25T01:36:40;11.77;;;4.80;;
5847;SDS011;8756;49.29324300;8.70599800;2023-04-25T01:39:06;10.00;;;4.40;;
5847;SDS011;8756;49.29324300;8.70599800;2023-04-25T01:41:32;11.73;;;5.00;;
5847;SDS011;8756;49.29324300;8.70599800;2023-04-25T01:43:59;11.57;;;5.20;;
5847;SDS011;8756;49.29324300;8.70599800;2023-04-25T01:46:26;10.53;;;3.90;;
5847;SDS011;8756;49.29324300;8.70599800;2023-04-25T01:48:52;11.63;;;5.10;;
5847;SDS011;8756;49.29324300;8.70599800;2023-04-25T01:51:18;12.03;;;5.17;;
5847;SDS011;8756;49.29324300;8.70599800;2023-04-25T01:53:44;11.50;;;4.50;;
5847;SDS011;8756;49.29324300;8.70599800;2023-04-25T01:56:10;11.53;;;4.57;;
5847;SDS011;8756;49.29324300;8.70599800;2023-04-25T01:58:35;10.90;;;4.83;;
5847;SDS011;8756;49.29324300;8.70599800;2023-04-25T02:01:01;10.90;;;4.80;;
5847;SDS011;8756;49.29324300;8.70599800;2023-04-25T02:03:29;10.77;;;4.87;;
5847;SDS011;8756;49.29324300;8.70599800;2023-04-25T02:05:56;10.70;;;4.37;;
5847;SDS011;8756;49.29324300;8.70599800;2023-04-25T02:08:22;11.60;;;5.33;;
5847;SDS011;8756;49.29324300;8.70599800;2023-04-25T02:10:47;11.97;;;5.13;;
5847;SDS011;8756;49.29324300;8.70599800;2023-04-25T02:13:13;11.37;;;4.53;;
5847;SDS011;8756;49.29324300;8.70599800;2023-04-25T02:15:38;11.50;;;4.97;;
5847;SDS011;8756;49.29324300;8.70599800;2023-04-25T02:18:04;12.07;;;5.20;;
5847;SDS011;8756;49.29324300;8.70599800;2023-04-25T02:20:31;14.90;;;4.83;;
5847;SDS011;8756;49.29324300;8.70599800;2023-04-25T02:22:57;10.60;;;4.90;;
5847;SDS011;8756;49.29324300;8.70599800;2023-04-25T02:25:22;11.27;;;5.30;;
5847;SDS011;8756;49.29324300;8.70599800;2023-04-25T02:27:48;12.00;;;5.07;;
5847;SDS011;8756;49.29324300;8.70599800;2023-04-25T02:30:14;11.80;;;5.37;;
5847;SDS011;8756;49.29324300;8.70599800;2023-04-25T02:32:40;11.60;;;5.17;;
5847;SDS011;8756;49.29324300;8.70599800;2023-04-25T02:35:06;11.80;;;5.00;;
5847;SDS011;8756;49.29324300;8.70599800;2023-04-25T02:37:33;12.00;;;5.53;;
5847;SDS011;8756;49.29324300;8.70599800;2023-04-25T02:40:00;11.50;;;4.80;;
5847;SDS011;8756;49.29324300;8.70599800;2023-04-25T02:42:26;11.30;;;5.10;;
5847;SDS011;8756;49.29324300;8.70599800;2023-04-25T02:44:52;12.20;;;4.83;;
5847;SDS011;8756;49.29324300;8.70599800;2023-04-25T02:47:18;10.20;;;4.27;;
5847;SDS011;8756;49.29324300;8.70599800;2023-04-25T02:49:44;11.50;;;4.63;;
5847;SDS011;8756;49.29324300;8.70599800;2023-04-25T02:52:10;10.80;;;4.87;;
5847;SDS011;8756;49.29324300;8.70599800;2023-04-25T02:54:36;11.03;;;4.93;;
5847;SDS011;8756;49.29324300;8.70599800;2023-04-25T02:57:03;11.20;;;4.30;;
5847;SDS011;8756;49.29324300;8.70599800;2023-04-25T02:59:29;11.27;;;4.77;;
5847;SDS011;8756;49.29324300;8.70599800;2023-04-25T03:01:54;11.57;;;4.97;;
5847;SDS011;8756;49.29324300;8.70599800;2023-04-25T03:04:20;11.90;;;4.97;;
5847;SDS011;8756;49.29324300;8.70599800;2023-04-25T03:06:48;10.97;;;4.90;;
5847;SDS011;8756;49.29324300;8.70599800;2023-04-25T03:09:18;13.93;;;6.23;;
5847;SDS011;8756;49.29324300;8.70599800;2023-04-25T03:11:44;12.53;;;6.13;;
5847;SDS011;8756;49.29324300;8.70599800;2023-04-25T03:14:10;11.83;;;5.67;;
5847;SDS011;8756;49.29324300;8.70599800;2023-04-25T03:16:37;11.30;;;5.80;;
5847;SDS011;8756;49.29324300;8.70599800;2023-04-25T03:19:03;12.67;;;5.60;;
5847;SDS011;8756;49.29324300;8.70599800;2023-04-25T03:21:29;12.93;;;5.60;;
5847;SDS011;8756;49.29324300;8.70599800;2023-04-25T03:23:57;13.90;;;5.87;;
5847;SDS011;8756;49.29324300;8.70599800;2023-04-25T03:26:23;12.70;;;5.87;;
5847;SDS011;8756;49.29324300;8.70599800;2023-04-25T03:28:49;12.37;;;5.73;;
5847;SDS011;8756;49.29324300;8.70599800;2023-04-25T03:31:15;14.80;;;6.13;;
5847;SDS011;8756;49.29324300;8.70599800;2023-04-25T03:33:41;14.30;;;5.37;;
5847;SDS011;8756;49.29324300;8.70599800;2023-04-25T03:36:07;11.97;;;5.20;;
5847;SDS011;8756;49.29324300;8.70599800;2023-04-25T03:38:33;13.47;;;6.30;;
5847;SDS011;8756;49.29324300;8.70599800;2023-04-25T03:40:58;13.07;;;5.73;;
5847;SDS011;8756;49.29324300;8.70599800;2023-04-25T03:43:24;12.37;;;6.30;;
5847;SDS011;8756;49.29324300;8.70599800;2023-04-25T03:45:50;13.73;;;5.87;;
5847;SDS011;8756;49.29324300;8.70599800;2023-04-25T03:48:16;16.77;;;6.90;;
5847;SDS011;8756;49.29324300;8.70599800;2023-04-25T03:50:41;12.50;;;5.80;;
5847;SDS011;8756;49.29324300;8.70599800;2023-04-25T03:53:07;15.27;;;6.03;;
5847;SDS011;8756;49.29324300;8.70599800;2023-04-25T03:55:32;13.83;;;6.80;;
5847;SDS011;8756;49.29324300;8.70599800;2023-04-25T03:57:58;13.80;;;5.90;;
5847;SDS011;8756;49.29324300;8.70599800;2023-04-25T04:00:24;12.10;;;5.07;;
5847;SDS011;8756;49.29324300;8.70599800;2023-04-25T04:02:50;13.43;;;5.50;;
5847;SDS011;8756;49.29324300;8.70599800;2023-04-25T04:05:16;10.60;;;4.80;;
5847;SDS011;8756;49.29324300;8.70599800;2023-04-25T04:07:42;13.13;;;5.90;;
5847;SDS011;8756;49.29324300;8.70599800;2023-04-25T04:10:08;12.90;;;6.20;;
5847;SDS011;8756;49.29324300;8.70599800;2023-04-25T04:12:35;13.00;;;5.80;;
5847;SDS011;8756;49.29324300;8.70599800;2023-04-25T04:15:02;13.30;;;5.50;;
5847;SDS011;8756;49.29324300;8.70599800;2023-04-25T04:17:29;16.60;;;7.20;;
5847;SDS011;8756;49.29324300;8.70599800;2023-04-25T04:19:55;14.80;;;6.60;;
5847;SDS011;8756;49.29324300;8.70599800;2023-04-25T04:22:21;13.60;;;6.13;;
5847;SDS011;8756;49.29324300;8.70599800;2023-04-25T04:24:48;13.00;;;6.00;;
5847;SDS011;8756;49.29324300;8.70599800;2023-04-25T04:27:15;12.77;;;5.63;;
5847;SDS011;8756;49.29324300;8.70599800;2023-04-25T04:29:42;12.80;;;6.20;;
5847;SDS011;8756;49.29324300;8.70599800;2023-04-25T04:32:08;14.17;;;6.83;;
5847;SDS011;8756;49.29324300;8.70599800;2023-04-25T04:34:34;15.60;;;7.27;;
5847;SDS011;8756;49.29324300;8.70599800;2023-04-25T04:37:00;13.80;;;6.30;;
5847;SDS011;8756;49.29324300;8.70599800;2023-04-25T04:39:29;12.27;;;5.83;;
5847;SDS011;8756;49.29324300;8.70599800;2023-04-25T04:41:55;12.10;;;5.20;;
5847;SDS011;8756;49.29324300;8.70599800;2023-04-25T04:44:21;13.33;;;5.30;;
5847;SDS011;8756;49.29324300;8.70599800;2023-04-25T04:46:47;12.47;;;5.90;;
5847;SDS011;8756;49.29324300;8.70599800;2023-04-25T04:49:13;14.17;;;6.13;;
5847;SDS011;8756;49.29324300;8.70599800;2023-04-25T04:51:39;14.57;;;5.93;;
5847;SDS011;8756;49.29324300;8.70599800;2023-04-25T04:54:09;14.17;;;5.83;;
5847;SDS011;8756;49.29324300;8.70599800;2023-04-25T04:56:35;13.87;;;6.40;;
5847;SDS011;8756;49.29324300;8.70599800;2023-04-25T04:59:01;13.03;;;5.77;;
5847;SDS011;8756;49.29324300;8.70599800;2023-04-25T05:01:27;12.67;;;5.90;;
5847;SDS011;8756;49.29324300;8.70599800;2023-04-25T05:03:54;11.97;;;5.43;;
5847;SDS011;8756;49.29324300;8.70599800;2023-04-25T05:06:25;13.77;;;6.77;;
5847;SDS011;8756;49.29324300;8.70599800;2023-04-25T05:08:52;13.20;;;6.30;;
5847;SDS011;8756;49.29324300;8.70599800;2023-04-25T05:11:18;11.97;;;5.67;;
5847;SDS011;8756;49.29324300;8.70599800;2023-04-25T05:13:44;14.53;;;6.00;;
5847;SDS011;8756;49.29324300;8.70599800;2023-04-25T05:16:10;14.17;;;5.80;;
5847;SDS011;8756;49.29324300;8.70599800;2023-04-25T05:18:39;13.67;;;6.00;;
5847;SDS011;8756;49.29324300;8.70599800;2023-04-25T05:21:05;14.87;;;7.00;;
5847;SDS011;8756;49.29324300;8.70599800;2023-04-25T05:23:31;13.50;;;7.07;;
5847;SDS011;8756;49.29324300;8.70599800;2023-04-25T05:25:57;16.27;;;7.33;;
5847;SDS011;8756;49.29324300;8.70599800;2023-04-25T05:28:24;14.23;;;7.00;;
5847;SDS011;8756;49.29324300;8.70599800;2023-04-25T05:30:50;14.40;;;7.20;;
5847;SDS011;8756;49.29324300;8.70599800;2023-04-25T05:33:16;14.40;;;5.97;;
5847;SDS011;8756;49.29324300;8.70599800;2023-04-25T05:35:42;13.60;;;6.50;;
5847;SDS011;8756;49.29324300;8.70599800;2023-04-25T05:38:07;13.70;;;6.20;;
5847;SDS011;8756;49.29324300;8.70599800;2023-04-25T05:40:33;13.10;;;6.33;;
5847;SDS011;8756;49.29324300;8.70599800;2023-04-25T05:43:00;13.13;;;6.70;;
5847;SDS011;8756;49.29324300;8.70599800;2023-04-25T05:45:25;15.53;;;6.93;;
5847;SDS011;8756;49.29324300;8.70599800;2023-04-25T05:47:51;13.93;;;7.17;;
5847;SDS011;8756;49.29324300;8.70599800;2023-04-25T05:50:17;13.80;;;6.90;;
5847;SDS011;8756;49.29324300;8.70599800;2023-04-25T05:52:42;15.10;;;6.70;;
5847;SDS011;8756;49.29324300;8.70599800;2023-04-25T05:55:08;13.10;;;5.30;;
5847;SDS011;8756;49.29324300;8.70599800;2023-04-25T05:57:34;14.43;;;6.27;;
5847;SDS011;8756;49.29324300;8.70599800;2023-04-25T06:00:00;15.10;;;6.00;;
5847;SDS011;8756;49.29324300;8.70599800;2023-04-25T06:02:26;13.57;;;5.53;;
5847;SDS011;8756;49.29324300;8.70599800;2023-04-25T06:04:51;12.93;;;6.67;;
5847;SDS011;8756;49.29324300;8.70599800;2023-04-25T06:07:18;13.57;;;6.37;;
5847;SDS011;8756;49.29324300;8.70599800;2023-04-25T06:09:44;12.67;;;6.30;;
5847;SDS011;8756;49.29324300;8.70599800;2023-04-25T06:12:10;13.50;;;6.30;;
5847;SDS011;8756;49.29324300;8.70599800;2023-04-25T06:14:36;17.60;;;6.50;;
5847;SDS011;8756;49.29324300;8.70599800;2023-04-25T06:17:02;13.87;;;6.00;;
5847;SDS011;8756;49.29324300;8.70599800;2023-04-25T06:19:33;13.40;;;6.17;;
5847;SDS011;8756;49.29324300;8.70599800;2023-04-25T06:22:00;12.40;;;5.47;;
5847;SDS011;8756;49.29324300;8.70599800;2023-04-25T06:24:26;14.80;;;6.63;;
5847;SDS011;8756;49.29324300;8.70599800;2023-04-25T06:26:53;13.27;;;6.37;;
5847;SDS011;8756;49.29324300;8.70599800;2023-04-25T06:29:19;15.83;;;6.40;;
5847;SDS011;8756;49.29324300;8.70599800;2023-04-25T06:31:45;14.03;;;6.23;;
5847;SDS011;8756;49.29324300;8.70599800;2023-04-25T06:34:11;14.43;;;7.07;;
5847;SDS011;8756;49.29324300;8.70599800;2023-04-25T06:36:37;12.27;;;5.67;;
5847;SDS011;8756;49.29324300;8.70599800;2023-04-25T06:39:03;13.00;;;6.23;;
5847;SDS011;8756;49.29324300;8.70599800;2023-04-25T06:41:28;14.43;;;6.27;;
5847;SDS011;8756;49.29324300;8.70599800;2023-04-25T06:43:54;13.60;;;6.60;;
5847;SDS011;8756;49.29324300;8.70599800;2023-04-25T06:46:20;14.67;;;6.33;;
5847;SDS011;8756;49.29324300;8.70599800;2023-04-25T06:48:46;16.00;;;7.10;;
5847;SDS011;8756;49.29324300;8.70599800;2023-04-25T06:51:11;13.40;;;6.03;;
5847;SDS011;8756;49.29324300;8.70599800;2023-04-25T06:53:38;14.57;;;5.83;;
5847;SDS011;8756;49.29324300;8.70599800;2023-04-25T06:56:07;20.33;;;7.27;;
5847;SDS011;8756;49.29324300;8.70599800;2023-04-25T06:58:32;15.80;;;6.70;;
5847;SDS011;8756;49.29324300;8.70599800;2023-04-25T07:00:58;15.33;;;6.83;;
5847;SDS011;8756;49.29324300;8.70599800;2023-04-25T07:03:23;19.03;;;7.13;;
5847;SDS011;8756;49.29324300;8.70599800;2023-04-25T07:05:49;14.30;;;6.67;;
5847;SDS011;8756;49.29324300;8.70599800;2023-04-25T07:08:15;19.50;;;8.17;;
5847;SDS011;8756;49.29324300;8.70599800;2023-04-25T07:10:42;13.80;;;6.43;;
5847;SDS011;8756;49.29324300;8.70599800;2023-04-25T07:13:07;15.40;;;6.77;;
5847;SDS011;8756;49.29324300;8.70599800;2023-04-25T07:15:33;15.73;;;6.30;;
5847;SDS011;8756;49.29324300;8.70599800;2023-04-25T07:17:59;15.10;;;7.07;;
5847;SDS011;8756;49.29324300;8.70599800;2023-04-25T07:20:25;14.97;;;6.30;;
5847;SDS011;8756;49.29324300;8.70599800;2023-04-25T07:22:52;14.30;;;6.53;;
5847;SDS011;8756;49.29324300;8.70599800;2023-04-25T07:25:18;16.70;;;7.30;;
5847;SDS011;8756;49.29324300;8.70599800;2023-04-25T07:27:44;16.37;;;7.90;;
5847;SDS011;8756;49.29324300;8.70599800;2023-04-25T07:30:10;17.33;;;8.10;;
5847;SDS011;8756;49.29324300;8.70599800;2023-04-25T07:32:37;15.97;;;7.30;;
5847;SDS011;8756;49.29324300;8.70599800;2023-04-25T07:35:03;14.30;;;6.77;;
5847;SDS011;8756;49.29324300;8.70599800;2023-04-25T07:37:30;15.47;;;7.60;;
5847;SDS011;8756;49.29324300;8.70599800;2023-04-25T07:39:55;15.87;;;7.50;;
5847;SDS011;8756;49.29324300;8.70599800;2023-04-25T07:42:21;17.73;;;7.43;;
5847;SDS011;8756;49.29324300;8.70599800;2023-04-25T07:44:46;15.30;;;7.13;;
5847;SDS011;8756;49.29324300;8.70599800;2023-04-25T07:47:12;16.80;;;7.27;;
5847;SDS011;8756;49.29324300;8.70599800;2023-04-25T07:49:38;20.87;;;9.03;;
5847;SDS011;8756;49.29324300;8.70599800;2023-04-25T07:52:05;18.80;;;8.10;;
5847;SDS011;8756;49.29324300;8.70599800;2023-04-25T07:54:31;20.93;;;8.97;;
5847;SDS011;8756;49.29324300;8.70599800;2023-04-25T07:56:57;17.87;;;7.90;;
5847;SDS011;8756;49.29324300;8.70599800;2023-04-25T07:59:23;14.00;;;6.77;;
5847;SDS011;8756;49.29324300;8.70599800;2023-04-25T08:01:49;19.63;;;9.13;;
5847;SDS011;8756;49.29324300;8.70599800;2023-04-25T08:04:15;16.43;;;7.50;;
5847;SDS011;8756;49.29324300;8.70599800;2023-04-25T08:06:41;16.87;;;7.43;;
5847;SDS011;8756;49.29324300;8.70599800;2023-04-25T08:09:08;17.87;;;8.00;;
5847;SDS011;8756;49.29324300;8.70599800;2023-04-25T08:11:35;15.40;;;7.80;;
5847;SDS011;8756;49.29324300;8.70599800;2023-04-25T08:14:01;15.97;;;6.13;;
5847;SDS011;8756;49.29324300;8.70599800;2023-04-25T08:16:27;18.47;;;7.37;;
5847;SDS011;8756;49.29324300;8.70599800;2023-04-25T08:18:53;18.77;;;7.10;;
5847;SDS011;8756;49.29324300;8.70599800;2023-04-25T08:21:19;16.00;;;9.17;;
5847;SDS011;8756;49.29324300;8.70599800;2023-04-25T08:23:45;15.20;;;7.47;;
5847;SDS011;8756;49.29324300;8.70599800;2023-04-25T08:26:11;14.83;;;6.57;;
5847;SDS011;8756;49.29324300;8.70599800;2023-04-25T08:28:36;14.70;;;6.20;;
5847;SDS011;8756;49.29324300;8.70599800;2023-04-25T08:31:02;14.00;;;7.50;;
5847;SDS011;8756;49.29324300;8.70599800;2023-04-25T08:33:28;15.83;;;7.53;;
5847;SDS011;8756;49.29324300;8.70599800;2023-04-25T08:35:55;16.43;;;7.13;;
5847;SDS011;8756;49.29324300;8.70599800;2023-04-25T08:38:24;15.70;;;6.67;;
5847;SDS011;8756;49.29324300;8.70599800;2023-04-25T08:40:50;16.30;;;6.40;;
5847;SDS011;8756;49.29324300;8.70599800;2023-04-25T08:43:17;15.40;;;6.70;;
5847;SDS011;8756;49.29324300;8.70599800;2023-04-25T08:45:45;15.77;;;6.77;;
5847;SDS011;8756;49.29324300;8.70599800;2023-04-25T08:48:12;13.67;;;6.40;;
5847;SDS011;8756;49.29324300;8.70599800;2023-04-25T08:50:58;16.87;;;7.80;;
5847;SDS011;8756;49.29324300;8.70599800;2023-04-25T08:53:28;13.20;;;5.60;;
5847;SDS011;8756;49.29324300;8.70599800;2023-04-25T08:55:57;17.10;;;6.63;;
5847;SDS011;8756;49.29324300;8.70599800;2023-04-25T08:58:26;14.67;;;6.23;;
5847;SDS011;8756;49.29324300;8.70599800;2023-04-25T09:00:53;19.60;;;7.70;;
5847;SDS011;8756;49.29324300;8.70599800;2023-04-25T09:03:19;13.23;;;5.43;;
5847;SDS011;8756;49.29324300;8.70599800;2023-04-25T09:05:45;13.43;;;6.30;;
5847;SDS011;8756;49.29324300;8.70599800;2023-04-25T09:08:11;12.83;;;5.40;;
5847;SDS011;8756;49.29324300;8.70599800;2023-04-25T09:10:37;13.47;;;5.60;;
5847;SDS011;8756;49.29324300;8.70599800;2023-04-25T09:13:04;14.67;;;5.33;;
5847;SDS011;8756;49.29324300;8.70599800;2023-04-25T09:15:53;15.03;;;6.10;;
5847;SDS011;8756;49.29324300;8.70599800;2023-04-25T09:18:25;13.47;;;6.17;;
5847;SDS011;8756;49.29324300;8.70599800;2023-04-25T09:20:53;15.07;;;6.47;;
5847;SDS011;8756;49.29324300;8.70599800;2023-04-25T09:23:20;13.20;;;5.17;;
5847;SDS011;8756;49.29324300;8.70599800;2023-04-25T09:25:48;16.20;;;6.87;;
5847;SDS011;8756;49.29324300;8.70599800;2023-04-25T09:28:25;12.33;;;5.40;;
5847;SDS011;8756;49.29324300;8.70599800;2023-04-25T09:30:56;15.13;;;7.07;;
5847;SDS011;8756;49.29324300;8.70599800;2023-04-25T09:33:26;14.70;;;6.13;;
5847;SDS011;8756;49.29324300;8.70599800;2023-04-25T09:36:09;11.60;;;4.73;;
5847;SDS011;8756;49.29324300;8.70599800;2023-04-25T09:38:45;11.93;;;4.50;;
5847;SDS011;8756;49.29324300;8.70599800;2023-04-25T09:41:22;14.70;;;5.30;;
5847;SDS011;8756;49.29324300;8.70599800;2023-04-25T09:43:49;14.90;;;5.93;;
5847;SDS011;8756;49.29324300;8.70599800;2023-04-25T09:46:15;12.53;;;5.30;;
5847;SDS011;8756;49.29324300;8.70599800;2023-04-25T09:48:52;14.70;;;5.70;;
5847;SDS011;8756;49.29324300;8.70599800;2023-04-25T09:51:18;12.00;;;4.80;;
5847;SDS011;8756;49.29324300;8.70599800;2023-04-25T09:53:45;13.77;;;5.80;;
5847;SDS011;8756;49.29324300;8.70599800;2023-04-25T09:56:14;15.23;;;5.83;;
5847;SDS011;8756;49.29324300;8.70599800;2023-04-25T09:58:41;12.63;;;5.20;;
5847;SDS011;8756;49.29324300;8.70599800;2023-04-25T10:01:08;13.53;;;6.57;;
5847;SDS011;8756;49.29324300;8.70599800;2023-04-25T10:03:36;16.23;;;6.40;;
5847;SDS011;8756;49.29324300;8.70599800;2023-04-25T10:06:08;15.70;;;5.90;;
5847;SDS011;8756;49.29324300;8.70599800;2023-04-25T10:08:45;13.23;;;5.63;;
5847;SDS011;8756;49.29324300;8.70599800;2023-04-25T10:11:16;14.70;;;6.33;;
5847;SDS011;8756;49.29324300;8.70599800;2023-04-25T10:13:42;13.60;;;5.93;;
5847;SDS011;8756;49.29324300;8.70599800;2023-04-25T10:16:09;15.97;;;6.30;;
5847;SDS011;8756;49.29324300;8.70599800;2023-04-25T10:18:35;11.87;;;5.40;;
5847;SDS011;8756;49.29324300;8.70599800;2023-04-25T10:21:03;16.00;;;5.67;;
5847;SDS011;8756;49.29324300;8.70599800;2023-04-25T10:23:31;18.57;;;5.47;;
5847;SDS011;8756;49.29324300;8.70599800;2023-04-25T10:25:59;12.30;;;5.63;;
5847;SDS011;8756;49.29324300;8.70599800;2023-04-25T10:28:25;12.93;;;5.57;;
5847;SDS011;8756;49.29324300;8.70599800;2023-04-25T10:33:34;15.70;;;4.77;;
5847;SDS011;8756;49.29324300;8.70599800;2023-04-25T10:36:13;15.93;;;5.30;;
5847;SDS011;8756;49.29324300;8.70599800;2023-04-25T10:38:43;12.57;;;4.90;;
5847;SDS011;8756;49.29324300;8.70599800;2023-04-25T10:41:10;13.30;;;5.50;;
5847;SDS011;8756;49.29324300;8.70599800;2023-04-25T10:43:39;12.70;;;4.77;;
5847;SDS011;8756;49.29324300;8.70599800;2023-04-25T10:46:22;13.60;;;4.33;;
5847;SDS011;8756;49.29324300;8.70599800;2023-04-25T10:48:53;13.83;;;5.53;;
5847;SDS011;8756;49.29324300;8.70599800;2023-04-25T10:51:39;12.53;;;4.93;;
5847;SDS011;8756;49.29324300;8.70599800;2023-04-25T10:54:07;13.83;;;4.53;;
5847;SDS011;8756;49.29324300;8.70599800;2023-04-25T10:56:41;13.90;;;5.30;;
5847;SDS011;8756;49.29324300;8.70599800;2023-04-25T11:01:42;13.63;;;5.90;;
5847;SDS011;8756;49.29324300;8.70599800;2023-04-25T11:04:22;12.23;;;5.13;;
5847;SDS011;8756;49.29324300;8.70599800;2023-04-25T11:09:47;12.50;;;5.30;;
5847;SDS011;8756;49.29324300;8.70599800;2023-04-25T11:12:13;11.83;;;4.53;;
5847;SDS011;8756;49.29324300;8.70599800;2023-04-25T11:14:40;11.60;;;4.50;;
5847;SDS011;8756;49.29324300;8.70599800;2023-04-25T11:17:05;11.87;;;4.90;;
5847;SDS011;8756;49.29324300;8.70599800;2023-04-25T11:19:32;13.50;;;4.73;;
5847;SDS011;8756;49.29324300;8.70599800;2023-04-25T11:21:58;18.73;;;4.53;;
5847;SDS011;8756;49.29324300;8.70599800;2023-04-25T11:24:29;14.33;;;4.50;;
5847;SDS011;8756;49.29324300;8.70599800;2023-04-25T11:26:59;13.53;;;5.17;;
5847;SDS011;8756;49.29324300;8.70599800;2023-04-25T11:29:29;13.20;;;4.40;;
5847;SDS011;8756;49.29324300;8.70599800;2023-04-25T11:31:56;13.23;;;4.70;;
5847;SDS011;8756;49.29324300;8.70599800;2023-04-25T11:34:23;12.73;;;4.80;;
5847;SDS011;8756;49.29324300;8.70599800;2023-04-25T11:36:50;13.60;;;4.47;;
5847;SDS011;8756;49.29324300;8.70599800;2023-04-25T11:39:18;15.13;;;5.20;;
5847;SDS011;8756;49.29324300;8.70599800;2023-04-25T11:41:44;12.40;;;5.10;;
5847;SDS011;8756;49.29324300;8.70599800;2023-04-25T11:44:11;13.30;;;4.93;;
5847;SDS011;8756;49.29324300;8.70599800;2023-04-25T11:46:40;10.93;;;4.43;;
5847;SDS011;8756;49.29324300;8.70599800;2023-04-25T11:49:07;11.37;;;4.80;;
5847;SDS011;8756;49.29324300;8.70599800;2023-04-25T11:51:39;12.00;;;4.97;;
5847;SDS011;8756;49.29324300;8.70599800;2023-04-25T11:54:06;12.50;;;4.70;;
5847;SDS011;8756;49.29324300;8.70599800;2023-04-25T11:56:32;10.97;;;4.70;;
5847;SDS011;8756;49.29324300;8.70599800;2023-04-25T12:01:27;13.43;;;5.20;;
5847;SDS011;8756;49.29324300;8.70599800;2023-04-25T12:03:57;13.43;;;5.50;;
5847;SDS011;8756;49.29324300;8.70599800;2023-04-25T12:06:36;11.70;;;5.40;;
5847;SDS011;8756;49.29324300;8.70599800;2023-04-25T12:09:07;10.90;;;4.90;;
5847;SDS011;8756;49.29324300;8.70599800;2023-04-25T12:11:42;11.60;;;4.70;;
5847;SDS011;8756;49.29324300;8.70599800;2023-04-25T12:14:12;12.63;;;4.20;;
5847;SDS011;8756;49.29324300;8.70599800;2023-04-25T12:16:57;13.30;;;4.47;;
5847;SDS011;8756;49.29324300;8.70599800;2023-04-25T12:19:25;11.83;;;4.63;;
5847;SDS011;8756;49.29324300;8.70599800;2023-04-25T12:21:58;13.30;;;4.20;;
5847;SDS011;8756;49.29324300;8.70599800;2023-04-25T12:24:26;15.90;;;4.50;;
5847;SDS011;8756;49.29324300;8.70599800;2023-04-25T12:27:02;13.47;;;4.87;;
5847;SDS011;8756;49.29324300;8.70599800;2023-04-25T12:29:33;11.40;;;4.90;;
5847;SDS011;8756;49.29324300;8.70599800;2023-04-25T12:31:59;14.03;;;4.10;;
5847;SDS011;8756;49.29324300;8.70599800;2023-04-25T12:34:28;10.60;;;4.20;;
5847;SDS011;8756;49.29324300;8.70599800;2023-04-25T12:36:54;12.60;;;4.40;;
5847;SDS011;8756;49.29324300;8.70599800;2023-04-25T12:39:21;12.70;;;4.93;;
5847;SDS011;8756;49.29324300;8.70599800;2023-04-25T12:41:52;10.90;;;4.43;;
5847;SDS011;8756;49.29324300;8.70599800;2023-04-25T12:44:19;10.87;;;4.10;;
5847;SDS011;8756;49.29324300;8.70599800;2023-04-25T12:46:45;11.83;;;4.50;;
5847;SDS011;8756;49.29324300;8.70599800;2023-04-25T12:49:11;11.10;;;4.30;;
5847;SDS011;8756;49.29324300;8.70599800;2023-04-25T12:51:37;11.47;;;4.40;;
5847;SDS011;8756;49.29324300;8.70599800;2023-04-25T12:54:03;15.97;;;4.80;;
5847;SDS011;8756;49.29324300;8.70599800;2023-04-25T12:56:31;12.20;;;4.90;;
5847;SDS011;8756;49.29324300;8.70599800;2023-04-25T12:58:57;15.30;;;5.50;;
5847;SDS011;8756;49.29324300;8.70599800;2023-04-25T13:01:23;11.97;;;4.17;;
5847;SDS011;8756;49.29324300;8.70599800;2023-04-25T13:03:50;11.97;;;4.60;;
5847;SDS011;8756;49.29324300;8.70599800;2023-04-25T13:06:16;14.17;;;4.80;;
5847;SDS011;8756;49.29324300;8.70599800;2023-04-25T13:08:44;11.30;;;4.87;;
5847;SDS011;8756;49.29324300;8.70599800;2023-04-25T13:11:09;12.00;;;5.20;;